Eglin Air Force Base
KVPS : now visible

Airfield :











YOU CAN JOIN US ON...

 
LOGIN :

Register | Disclaimer

   EN    FR    IT 

 









Legend :    VFR   Marginal VFR   IFR   Intensive IFR   Very Intensive IFR
Visi :
Ceiling :
>= 8 km
>= 3000ft
5 to 8 km
1000 to 3000 ft
1500m to 5 km
500 to 1000 ft
800 to 1500m
200 to 500 ft
< 800m
< 200 ft
Symbols :   Thunderstorms  Fog  Heavy snow  Heavy precipitations  Wind > 20 kt






- Airport Elevation : 87 ft
- IATA code : VPS


KVPS - Eglin Air Force Base

CURRENT METAR :
  • 231056Z AUTO 03004KT 10SM CLR 14/10 A3002 RMK AO2 SLP172 T01360104 $

EXPIRED METARs :
  • 230956Z AUTO 02005KT 10SM CLR 14/11 A3000 RMK AO2 SLP165 T01430109 $
  • 230856Z AUTO 03004KT 10SM CLR 15/11 A3000 RMK AO2 SLP165 T01450105 58001 $

TAF TAF KVPS
Valid from the 23 at 09:00 until the 24 at 15:00 UTC


230900Z 2309/2415 02005KT 9999 SKC QNH3000INS WND 15006KT AFT 15
BECMG 2402/2403 05005KT 9999 SCT270 QNH3002INS TX29/2319Z TN11/2312Z
KZJX FIR / North America



MET'MAP, your aeronautical weather chart ! - Copyright ORBIFLY December 2007 - Disclaimer

ORBIFLY MET'MAP TEAM :

Programming & Development : Alexandra Zaïnal
Concept & original design : Baudouin d'Aumeries
Assistance for programming : Marc-Olivier Méhu
Technical & hardware support : Manuel Goepfert

Contact : metmap@orbifly.com




SOURCES & CREDITS :

   NOAA       Earth
Advisory